KTIW Airport Information

Runway Information
Runway 17 Length 5002 ft width 150 ft
Elevation 289 ft Threshold 0 ft Heading 187
Runway 35 Length 5002 ft Width 150 ft
Elevation 292 ft Threshold 0 ft Heading 7
Airport Frequencies
Type A/D Name SEATTLE AP Frequency 120.1 MHZ
Type ATIS Name ATIS Frequency 124.05 MHZ
Type CTAF Name CTAF Frequency 118.5 MHZ
Type GND Name GND Frequency 121.8 MHZ
Type TWR Name TWR Frequency 118.5 MHZ
Type UNIC Name UNICOM Frequency 122.95 MHZ
Airport Navaids
Airport Weather Information & NOTAM
ADDS - METARS form results

(0752 UTC 15 December 2018)
Data provider http://aviationweather.gov/metar/data/
 
METAR text: KTIW 150653Z AUTO 17012KT 7SM -RA FEW013 BKN033 OVC048 06/04 A2994 RMK AO2 SLP140 P0001 T00560039
Conditions at: KTIW (TACOMA , WA, US) observed 0653 UTC 15 December 2018
Temperature: 5.6°C (42°F)
Dewpoint: 3.9°C (39°F) [RH = 89%]
Pressure (altimeter): 29.94 inches Hg (1014.0 mb)
[Sea-level pressure: 1014.0 mb]
Winds: from the S (170 degrees) at 14 MPH (12 knots; 6.2 m/s)
Visibility: 7 miles (11 km)
Ceiling: 3300 feet AGL
Clouds: few clouds at 1300 feet AGL
broken clouds at 3300 feet AGL
overcast cloud deck at 4800 feet AGL
Weather: -RA  (light rain)